createdAt,value
2022-10-06T00:01:03.763Z,0.90
2022-10-06T00:03:31.067Z,1.10
2022-10-06T00:06:02.625Z,1.10
2022-10-06T00:08:31.476Z,0.80
2022-10-06T00:10:58.315Z,1.13
2022-10-06T00:13:26.068Z,0.90
2022-10-06T00:15:53.011Z,0.90
2022-10-06T00:18:19.755Z,1.27
2022-10-06T00:20:53.880Z,1.00
2022-10-06T00:23:21.166Z,0.82
2022-10-06T00:25:47.589Z,0.93
2022-10-06T00:28:14.244Z,1.27
2022-10-06T00:30:40.805Z,1.05
2022-10-06T00:33:07.335Z,0.90
2022-10-06T00:35:34.636Z,0.93
2022-10-06T00:38:01.868Z,1.70
2022-10-06T00:40:29.732Z,1.10
2022-10-06T00:42:59.390Z,1.45
2022-10-06T00:45:39.755Z,1.03
2022-10-06T00:48:12.900Z,0.90
2022-10-06T00:50:40.513Z,1.85
2022-10-06T00:53:07.621Z,0.90
2022-10-06T00:55:34.258Z,1.10
2022-10-06T00:58:01.311Z,1.10
2022-10-06T01:00:28.502Z,1.08
2022-10-06T01:02:59.172Z,0.95
2022-10-06T01:05:30.566Z,1.33
2022-10-06T01:07:57.716Z,1.17
2022-10-06T01:10:24.376Z,1.10
2022-10-06T01:12:52.117Z,0.88
2022-10-06T01:15:21.534Z,1.60
2022-10-06T01:18:15.053Z,0.85
2022-10-06T01:21:05.550Z,1.15
2022-10-06T01:23:33.487Z,1.07
2022-10-06T01:26:03.660Z,1.10
2022-10-06T01:28:30.854Z,0.82
2022-10-06T01:31:00.848Z,1.17
2022-10-06T01:33:29.778Z,1.25
2022-10-06T01:35:56.512Z,1.60
2022-10-06T01:38:23.444Z,0.90
2022-10-06T01:40:52.443Z,0.80
2022-10-06T01:43:19.101Z,1.30
2022-10-06T01:45:45.537Z,0.75
2022-10-06T01:48:12.006Z,1.23
2022-10-06T01:50:41.151Z,1.42
2022-10-06T01:53:07.694Z,1.20
2022-10-06T01:55:34.184Z,1.00
2022-10-06T01:58:00.655Z,0.88
2022-10-06T02:00:27.139Z,1.27
2022-10-06T02:02:53.744Z,1.15
2022-10-06T02:05:20.204Z,1.10
2022-10-06T02:07:46.607Z,0.82
2022-10-06T02:10:13.063Z,0.57
2022-10-06T02:12:39.532Z,1.00
2022-10-06T02:15:06.574Z,1.00
2022-10-06T02:17:33.017Z,1.20
2022-10-06T02:19:59.426Z,0.95
2022-10-06T02:22:25.896Z,1.25
2022-10-06T02:24:52.324Z,0.60
2022-10-06T02:27:18.718Z,1.33
2022-10-06T02:29:45.164Z,0.90
2022-10-06T02:32:11.603Z,0.70
2022-10-06T02:34:38.376Z,0.82
2022-10-06T02:37:05.388Z,1.10
2022-10-06T02:39:31.830Z,0.85
2022-10-06T02:41:58.266Z,0.85
2022-10-06T02:44:25.245Z,0.65
2022-10-06T02:46:52.719Z,0.80
2022-10-06T02:49:19.174Z,0.63
2022-10-06T02:51:48.210Z,0.70
2022-10-06T02:54:15.440Z,1.00
2022-10-06T02:56:41.868Z,0.88
2022-10-06T02:59:08.262Z,0.95
2022-10-06T03:01:35.200Z,1.10
2022-10-06T03:04:01.722Z,0.65
2022-10-06T03:06:30.955Z,0.90
2022-10-06T03:09:02.478Z,1.30
2022-10-06T03:11:32.028Z,0.77
2022-10-06T03:13:59.331Z,1.23
2022-10-06T03:16:26.982Z,1.17
2022-10-06T03:18:55.465Z,0.70
2022-10-06T03:21:24.440Z,0.93
2022-10-06T03:23:53.393Z,0.95
2022-10-06T03:26:22.903Z,1.03
2022-10-06T03:28:49.539Z,1.00
2022-10-06T03:31:18.039Z,0.75
2022-10-06T03:33:44.645Z,0.77
2022-10-06T03:36:13.202Z,0.80
2022-10-06T03:38:39.924Z,1.00
2022-10-06T03:41:10.554Z,0.80
2022-10-06T03:43:38.236Z,0.70
2022-10-06T03:46:06.159Z,1.67
2022-10-06T03:48:34.924Z,0.70
2022-10-06T03:51:04.697Z,0.60
2022-10-06T03:53:32.533Z,0.90
2022-10-06T03:56:04.308Z,0.98
2022-10-06T03:58:33.104Z,1.13
2022-10-06T04:01:01.529Z,0.93
2022-10-06T04:03:28.485Z,0.80
2022-10-06T04:06:00.776Z,1.00
2022-10-06T04:08:28.889Z,1.02
2022-10-06T04:10:56.293Z,1.00
2022-10-06T04:13:22.859Z,1.00
2022-10-06T04:15:49.286Z,0.90
2022-10-06T04:18:16.155Z,1.15
2022-10-06T04:20:42.653Z,0.55
2022-10-06T04:23:09.547Z,1.00
2022-10-06T04:25:36.008Z,1.20
2022-10-06T04:28:02.475Z,1.30
2022-10-06T04:30:29.244Z,0.63
2022-10-06T04:32:55.821Z,1.15
2022-10-06T04:35:23.315Z,0.95
2022-10-06T04:37:50.139Z,1.67
2022-10-06T04:40:16.659Z,1.00
2022-10-06T04:42:43.322Z,0.88
2022-10-06T04:45:10.534Z,0.73
2022-10-06T04:47:37.049Z,1.52
2022-10-06T04:50:03.941Z,1.27
2022-10-06T04:52:30.350Z,0.60
2022-10-06T04:54:57.315Z,0.93
2022-10-06T04:57:23.808Z,0.73
2022-10-06T05:00:15.089Z,0.73
2022-10-06T05:02:41.907Z,0.73
2022-10-06T05:05:08.473Z,0.80
2022-10-06T05:07:34.928Z,1.00
2022-10-06T05:10:01.366Z,1.30
2022-10-06T05:12:31.036Z,1.20
2022-10-06T05:14:58.002Z,1.00
2022-10-06T05:17:24.488Z,1.10
2022-10-06T05:19:50.957Z,0.98
2022-10-06T05:22:17.404Z,0.95
2022-10-06T05:24:43.826Z,1.30
2022-10-06T05:27:10.314Z,0.75
2022-10-06T05:29:36.872Z,1.27
2022-10-06T05:32:03.437Z,0.95
2022-10-06T05:34:29.899Z,1.30
2022-10-06T05:36:56.377Z,0.73
2022-10-06T05:39:22.847Z,1.73
2022-10-06T05:41:49.967Z,1.50
2022-10-06T05:44:16.375Z,1.17
2022-10-06T05:46:42.786Z,0.93
2022-10-06T05:49:11.438Z,1.52
2022-10-06T05:51:41.087Z,1.20
2022-10-06T05:54:07.657Z,0.87
2022-10-06T05:56:36.518Z,1.35
2022-10-06T05:59:04.646Z,1.60
2022-10-06T06:01:34.853Z,1.38
2022-10-06T06:04:07.290Z,1.15
2022-10-06T06:06:44.568Z,1.50
2022-10-06T06:09:18.829Z,1.10
2022-10-06T06:11:48.020Z,0.73
2022-10-06T06:14:17.093Z,1.10
2022-10-06T06:16:44.603Z,1.00
2022-10-06T06:19:12.853Z,1.13
2022-10-06T06:21:39.887Z,1.88
2022-10-06T06:24:07.111Z,1.55
2022-10-06T06:26:36.910Z,1.60
2022-10-06T06:29:04.339Z,1.92
2022-10-06T06:31:33.452Z,1.87
2022-10-06T06:34:02.739Z,1.52
2022-10-06T06:36:35.591Z,1.63
2022-10-06T06:39:05.313Z,1.05
2022-10-06T06:41:37.577Z,1.30
2022-10-06T06:44:06.836Z,0.87
2022-10-06T06:46:36.790Z,1.10
2022-10-06T06:49:06.382Z,1.48
2022-10-06T06:51:37.851Z,1.30
2022-10-06T06:54:05.190Z,1.08
2022-10-06T06:56:34.849Z,1.20
2022-10-06T06:59:06.591Z,1.95
2022-10-06T07:01:33.075Z,1.30
2022-10-06T07:03:59.640Z,1.35
2022-10-06T07:06:28.723Z,1.35
2022-10-06T07:08:59.682Z,1.00
2022-10-06T07:11:31.814Z,1.40
2022-10-06T07:14:01.657Z,0.90
2022-10-06T07:16:48.558Z,1.00
2022-10-06T07:19:35.381Z,1.73
2022-10-06T07:22:26.481Z,1.40
2022-10-06T07:25:13.263Z,1.33
2022-10-06T07:27:45.215Z,1.52
2022-10-06T07:30:19.525Z,1.52
2022-10-06T07:32:50.489Z,1.13
2022-10-06T07:35:20.289Z,1.27
2022-10-06T07:37:47.916Z,1.35
2022-10-06T07:40:15.074Z,1.75
2022-10-06T07:42:48.263Z,2.60
2022-10-06T07:45:38.869Z,1.33
2022-10-06T07:48:07.873Z,1.83
2022-10-06T07:50:34.540Z,1.55
2022-10-06T07:53:07.651Z,1.10
2022-10-06T07:55:36.329Z,1.58
2022-10-06T07:58:02.923Z,0.80
2022-10-06T08:00:29.391Z,1.20
2022-10-06T08:02:55.995Z,1.38
2022-10-06T08:05:22.499Z,1.50
2022-10-06T08:07:48.938Z,1.52
2022-10-06T08:10:18.434Z,1.90
2022-10-06T08:12:44.938Z,1.20
2022-10-06T08:15:13.014Z,1.55
2022-10-06T08:17:40.077Z,1.17
2022-10-06T08:20:09.173Z,1.50
2022-10-06T08:22:38.817Z,1.45
2022-10-06T08:25:07.405Z,1.60
2022-10-06T08:27:35.354Z,1.55
2022-10-06T08:30:02.736Z,1.00
2022-10-06T08:32:30.050Z,1.10
2022-10-06T08:34:57.245Z,1.52
2022-10-06T08:37:24.556Z,1.63
2022-10-06T08:39:51.625Z,1.42
2022-10-06T08:42:26.630Z,2.00
2022-10-06T08:45:04.960Z,1.42
2022-10-06T08:47:35.879Z,1.30
2022-10-06T08:50:09.771Z,1.83
2022-10-06T08:52:48.492Z,1.00
2022-10-06T08:55:42.891Z,1.15
2022-10-06T08:58:37.231Z,1.35
2022-10-06T09:01:12.682Z,1.33
2022-10-06T09:03:39.385Z,1.80
2022-10-06T09:06:24.408Z,1.08
2022-10-06T09:08:56.538Z,2.13
2022-10-06T09:11:35.377Z,1.67
2022-10-06T09:14:14.897Z,2.17
2022-10-06T09:16:48.595Z,1.77
2022-10-06T09:19:31.449Z,1.42
2022-10-06T09:22:04.590Z,1.00
2022-10-06T09:24:37.339Z,1.10
2022-10-06T09:27:16.855Z,1.05
2022-10-06T09:29:43.397Z,1.80
2022-10-06T09:32:10.988Z,1.42
2022-10-06T09:34:42.772Z,1.02
2022-10-06T09:37:12.813Z,0.95
2022-10-06T09:39:41.617Z,0.77
2022-10-06T09:42:35.445Z,1.27
2022-10-06T09:45:16.981Z,1.08
2022-10-06T09:47:45.373Z,1.00
2022-10-06T09:50:22.638Z,0.90
2022-10-06T09:52:58.308Z,0.75
2022-10-06T09:55:29.743Z,0.80
2022-10-06T09:57:57.533Z,0.95
2022-10-06T10:00:38.676Z,0.93
2022-10-06T10:03:13.539Z,0.70
2022-10-06T10:05:48.067Z,1.40
2022-10-06T10:08:14.407Z,1.03
2022-10-06T10:10:41.237Z,0.90
2022-10-06T10:13:26.005Z,1.15
2022-10-06T10:15:53.675Z,1.27
2022-10-06T10:18:26.500Z,1.20
2022-10-06T10:21:00.965Z,0.97
2022-10-06T10:23:33.127Z,0.90
2022-10-06T10:26:08.228Z,1.20
2022-10-06T10:28:46.938Z,0.77
2022-10-06T10:31:39.050Z,1.10
2022-10-06T10:34:23.944Z,0.70
2022-10-06T10:37:21.914Z,1.00
2022-10-06T10:39:58.527Z,0.90
2022-10-06T10:42:35.137Z,1.15
2022-10-06T10:45:05.061Z,0.85
2022-10-06T10:47:36.664Z,0.97
2022-10-06T10:50:26.282Z,0.60
2022-10-06T10:52:58.237Z,0.75
2022-10-06T10:55:29.887Z,0.52
2022-10-06T10:58:01.436Z,0.75
2022-10-06T11:00:30.849Z,0.90
2022-10-06T11:02:58.849Z,0.75
2022-10-06T11:05:50.194Z,0.60
2022-10-06T11:08:35.962Z,1.30
2022-10-06T11:11:06.512Z,0.60
2022-10-06T11:13:40.771Z,0.93
2022-10-06T11:16:18.032Z,0.90
2022-10-06T11:19:03.018Z,0.90
2022-10-06T11:21:50.739Z,1.58
2022-10-06T11:24:40.127Z,1.00
2022-10-06T11:27:20.192Z,1.00
2022-10-06T11:30:04.213Z,0.98
2022-10-06T11:32:44.703Z,0.70
2022-10-06T11:35:24.056Z,1.02
2022-10-06T11:37:53.816Z,0.73
2022-10-06T11:40:38.576Z,0.80
2022-10-06T11:43:15.296Z,1.40
2022-10-06T11:45:55.134Z,0.57
2022-10-06T11:48:27.990Z,1.00
2022-10-06T11:50:58.087Z,1.10
2022-10-06T11:53:37.473Z,1.00
2022-10-06T11:56:23.989Z,1.00
2022-10-06T11:58:56.351Z,0.80
2022-10-06T12:01:32.444Z,0.50
2022-10-06T12:04:08.081Z,0.77
2022-10-06T12:06:46.835Z,1.33
2022-10-06T12:09:29.232Z,0.90
2022-10-06T12:11:59.817Z,0.85
2022-10-06T12:17:42.436Z,0.70
2022-10-06T12:20:26.365Z,0.87
2022-10-06T12:23:15.592Z,0.70
2022-10-06T12:25:55.284Z,1.00
2022-10-06T12:28:33.955Z,0.85
2022-10-06T12:31:19.527Z,1.20
2022-10-06T12:33:46.284Z,0.90
2022-10-06T12:36:19.001Z,0.80
2022-10-06T12:39:06.764Z,0.85
2022-10-06T12:42:01.280Z,0.80
2022-10-06T12:44:37.331Z,0.80
2022-10-06T12:47:22.660Z,1.20
2022-10-06T12:49:57.077Z,1.10
2022-10-06T12:52:53.776Z,1.40
2022-10-06T12:55:38.996Z,0.70
2022-10-06T12:58:07.888Z,0.90
2022-10-06T13:00:37.492Z,0.70
2022-10-06T13:03:07.157Z,0.63
2022-10-06T13:05:35.462Z,0.60
2022-10-06T13:08:04.830Z,0.60
2022-10-06T13:10:35.341Z,0.63
2022-10-06T13:13:01.877Z,0.60
2022-10-06T13:15:34.967Z,0.60
2022-10-06T13:18:13.033Z,0.73
2022-10-06T13:20:50.438Z,0.80
2022-10-06T13:23:27.694Z,0.40
2022-10-06T13:25:57.655Z,1.33
2022-10-06T13:28:34.242Z,0.50
2022-10-06T13:31:03.451Z,0.70
2022-10-06T13:33:38.388Z,0.60
2022-10-06T13:36:06.087Z,0.70
2022-10-06T13:38:35.079Z,0.80
2022-10-06T13:41:04.393Z,0.75
2022-10-06T13:43:34.100Z,0.80
2022-10-06T13:46:07.792Z,0.90
2022-10-06T13:48:34.730Z,0.70
2022-10-06T13:51:03.401Z,0.73
2022-10-06T13:53:31.792Z,0.52
2022-10-06T13:55:58.799Z,0.65
2022-10-06T13:58:27.893Z,0.77
2022-10-06T14:01:01.017Z,0.90
2022-10-06T14:03:28.401Z,0.80
2022-10-06T14:06:06.574Z,0.43
2022-10-06T14:08:33.807Z,0.68
2022-10-06T14:11:04.620Z,0.70
2022-10-06T14:13:39.440Z,0.70
2022-10-06T14:16:18.203Z,0.53
2022-10-06T14:21:41.941Z,0.60
2022-10-06T14:24:18.952Z,0.80
2022-10-06T14:26:47.103Z,0.43
2022-10-06T14:29:16.573Z,0.60
2022-10-06T14:31:44.278Z,0.60
2022-10-06T14:34:14.770Z,0.85
2022-10-06T14:36:43.656Z,0.73
2022-10-06T14:39:12.585Z,0.50
2022-10-06T14:41:39.225Z,0.53
2022-10-06T14:44:09.809Z,0.60
2022-10-06T14:46:37.985Z,0.75
2022-10-06T14:49:09.516Z,1.10
2022-10-06T14:51:37.395Z,0.82
2022-10-06T14:54:05.100Z,0.47
2022-10-06T14:56:33.823Z,0.60
2022-10-06T14:59:03.950Z,0.45
2022-10-06T15:01:33.327Z,0.85
2022-10-06T15:04:03.653Z,0.70
2022-10-06T15:06:48.617Z,0.43
2022-10-06T15:09:15.251Z,0.57
2022-10-06T15:11:42.099Z,0.80
2022-10-06T15:14:08.735Z,0.88
2022-10-06T15:16:39.262Z,0.40
2022-10-06T15:19:06.076Z,0.50
2022-10-06T15:21:33.412Z,0.80
2022-10-06T15:24:02.785Z,0.63
2022-10-06T15:26:48.885Z,1.05
2022-10-06T15:29:16.156Z,0.70
2022-10-06T15:31:45.451Z,0.50
2022-10-06T15:34:14.193Z,0.57
2022-10-06T15:36:42.615Z,0.40
2022-10-06T15:39:11.780Z,0.40
2022-10-06T15:41:40.609Z,0.50
2022-10-06T15:44:08.523Z,0.50
2022-10-06T15:46:36.082Z,0.80
2022-10-06T15:49:06.736Z,0.75
2022-10-06T15:51:42.912Z,0.75
2022-10-06T15:54:10.844Z,0.50
2022-10-06T15:56:38.200Z,0.60
2022-10-06T15:59:07.856Z,0.60
2022-10-06T16:01:35.677Z,0.40
2022-10-06T16:04:11.491Z,0.60
2022-10-06T16:06:50.217Z,0.57
2022-10-06T16:09:18.921Z,0.87
2022-10-06T16:11:47.173Z,0.57
2022-10-06T16:14:14.912Z,1.38
2022-10-06T16:16:43.859Z,0.82
2022-10-06T16:19:10.919Z,0.95
2022-10-06T16:21:38.572Z,1.00
2022-10-06T16:24:05.254Z,0.85
2022-10-06T16:26:31.837Z,0.68
2022-10-06T16:28:58.270Z,0.80
2022-10-06T16:31:25.137Z,0.47
2022-10-06T16:33:51.664Z,1.00
2022-10-06T16:36:19.315Z,0.80
2022-10-06T16:38:49.372Z,0.70
2022-10-06T16:41:15.793Z,1.08
2022-10-06T16:43:44.735Z,0.98
2022-10-06T16:46:13.891Z,1.13
2022-10-06T16:48:42.597Z,0.93
2022-10-06T16:51:14.952Z,1.38
2022-10-06T16:53:53.386Z,0.70
2022-10-06T16:56:27.331Z,0.70
2022-10-06T16:58:58.793Z,1.43
2022-10-06T17:01:28.036Z,1.83
2022-10-06T17:04:22.299Z,2.97
2022-10-06T17:06:50.537Z,2.25
2022-10-06T17:09:19.484Z,2.03
2022-10-06T17:11:51.577Z,1.50
2022-10-06T17:14:19.338Z,1.42
2022-10-06T17:16:46.855Z,1.35
2022-10-06T17:19:15.541Z,0.95
2022-10-06T17:21:48.113Z,0.93
2022-10-06T17:24:19.868Z,1.40
2022-10-06T17:26:49.094Z,1.13
2022-10-06T17:29:22.365Z,1.60
2022-10-06T17:31:55.964Z,1.10
2022-10-06T17:34:26.507Z,0.80
2022-10-06T17:36:54.538Z,1.03
2022-10-06T17:39:22.730Z,0.90
2022-10-06T17:41:52.533Z,1.00
2022-10-06T17:44:23.788Z,1.00
2022-10-06T17:46:53.800Z,1.95
2022-10-06T17:49:22.019Z,1.70
2022-10-06T17:51:49.550Z,0.90
2022-10-06T17:54:19.988Z,1.08
2022-10-06T17:56:48.936Z,1.50
2022-10-06T17:59:24.550Z,1.15
2022-10-06T18:01:53.961Z,1.13
2022-10-06T18:04:20.573Z,1.73
2022-10-06T18:06:47.661Z,1.30
2022-10-06T18:09:15.106Z,1.17
2022-10-06T18:11:44.287Z,1.00
2022-10-06T18:14:11.805Z,1.27
2022-10-06T18:16:39.683Z,1.25
2022-10-06T18:19:18.561Z,0.98
2022-10-06T18:21:47.827Z,1.50
2022-10-06T18:24:21.014Z,1.20
2022-10-06T18:26:53.137Z,1.10
2022-10-06T18:29:22.932Z,0.90
2022-10-06T18:31:51.468Z,1.00
2022-10-06T18:36:10.973Z,1.30
2022-10-06T18:37:04.612Z,1.33
2022-10-06T18:39:31.198Z,1.27
2022-10-06T18:41:59.144Z,1.83
2022-10-06T18:44:44.229Z,1.40
2022-10-06T18:47:29.238Z,1.33
2022-10-06T18:49:55.914Z,1.30
2022-10-06T18:52:22.663Z,1.90
2022-10-06T18:54:50.092Z,1.50
2022-10-06T18:57:16.923Z,1.30
2022-10-06T18:59:43.387Z,1.40
2022-10-06T19:02:10.982Z,1.27
2022-10-06T19:04:39.117Z,1.33
2022-10-06T19:07:05.974Z,1.70
2022-10-06T19:09:32.396Z,1.67
2022-10-06T19:11:58.881Z,1.40
2022-10-06T19:16:59.158Z,1.70
2022-10-06T19:19:27.456Z,1.20
2022-10-06T19:21:59.683Z,1.35
2022-10-06T19:24:38.081Z,1.48
2022-10-06T19:27:12.157Z,1.58
2022-10-06T19:29:42.438Z,1.20
2022-10-06T19:32:08.901Z,1.77
2022-10-06T19:34:37.325Z,1.83
2022-10-06T19:37:04.624Z,1.92
2022-10-06T19:39:35.177Z,2.03
2022-10-06T19:42:20.633Z,2.17
2022-10-06T19:44:47.077Z,2.28
2022-10-06T19:47:14.903Z,2.03
2022-10-06T19:49:41.968Z,2.70
2022-10-06T19:52:10.890Z,2.10
2022-10-06T19:54:38.593Z,2.00
2022-10-06T19:57:05.943Z,2.30
2022-10-06T19:59:33.065Z,2.20
2022-10-06T20:01:59.558Z,2.35
2022-10-06T20:04:26.244Z,2.60
2022-10-06T20:06:53.343Z,2.57
2022-10-06T20:09:22.148Z,3.45
2022-10-06T20:11:50.333Z,2.70
2022-10-06T20:14:21.155Z,2.83
2022-10-06T20:16:50.578Z,4.40
2022-10-06T20:19:18.439Z,4.17
2022-10-06T20:21:45.061Z,3.38
2022-10-06T20:24:22.526Z,4.85
2022-10-06T20:26:50.443Z,2.63
2022-10-06T20:29:23.343Z,3.05
2022-10-06T20:31:55.111Z,3.70
2022-10-06T20:34:24.658Z,3.22
2022-10-06T20:36:56.056Z,3.85
2022-10-06T20:39:42.893Z,4.45
2022-10-06T20:42:14.832Z,3.75
2022-10-06T20:44:42.195Z,3.93
2022-10-06T20:47:08.958Z,4.50
2022-10-06T20:49:35.681Z,4.55
2022-10-06T20:52:03.352Z,3.70
2022-10-06T20:54:36.192Z,4.03
2022-10-06T20:57:04.755Z,3.20
2022-10-06T20:59:31.905Z,3.78
2022-10-06T21:02:01.408Z,3.65
2022-10-06T21:04:28.144Z,3.00
2022-10-06T21:06:54.843Z,3.58
2022-10-06T21:09:21.603Z,2.97
2022-10-06T21:11:48.390Z,2.97
2022-10-06T21:14:15.816Z,2.80
2022-10-06T21:16:44.459Z,2.78
2022-10-06T21:19:19.271Z,2.55
2022-10-06T21:21:52.210Z,2.67
2022-10-06T21:24:20.401Z,2.42
2022-10-06T21:26:47.184Z,3.08
2022-10-06T21:29:16.229Z,2.40
2022-10-06T21:31:43.702Z,2.20
2022-10-06T21:34:10.663Z,1.87
2022-10-06T21:36:38.032Z,2.08
2022-10-06T21:39:05.933Z,2.55
2022-10-06T21:41:35.070Z,2.15
2022-10-06T21:44:07.238Z,3.08
2022-10-06T21:46:37.744Z,2.07
2022-10-06T21:49:12.361Z,2.03
2022-10-06T21:51:40.411Z,3.25
2022-10-06T21:54:07.443Z,2.63
2022-10-06T21:56:34.021Z,2.67
2022-10-06T21:59:00.533Z,2.03
2022-10-06T22:01:30.054Z,2.60
2022-10-06T22:03:57.941Z,2.80
2022-10-06T22:06:24.468Z,2.90
2022-10-06T22:08:50.967Z,2.53
2022-10-06T22:11:21.040Z,2.70
2022-10-06T22:13:50.285Z,2.90
2022-10-06T22:16:19.363Z,2.67
2022-10-06T22:18:46.675Z,2.72
2022-10-06T22:21:14.780Z,2.95
2022-10-06T22:23:43.269Z,2.80
2022-10-06T22:26:11.771Z,3.17
2022-10-06T22:28:39.048Z,2.63
2022-10-06T22:31:09.000Z,2.92
2022-10-06T22:33:38.730Z,2.90
2022-10-06T22:36:07.819Z,2.87
2022-10-06T22:38:34.904Z,2.60
2022-10-06T22:41:07.407Z,2.75
2022-10-06T22:43:34.599Z,2.90
2022-10-06T22:46:01.889Z,2.60
2022-10-06T22:48:28.921Z,2.97
2022-10-06T22:50:55.369Z,2.83
2022-10-06T22:53:24.253Z,3.03
2022-10-06T22:55:51.602Z,2.63
2022-10-06T22:58:18.847Z,2.97
2022-10-06T23:00:45.763Z,2.73
2022-10-06T23:03:12.454Z,2.85
2022-10-06T23:05:40.023Z,3.42
2022-10-06T23:08:07.717Z,2.28
2022-10-06T23:10:35.939Z,2.78
2022-10-06T23:13:02.987Z,2.87
2022-10-06T23:15:29.603Z,2.20
2022-10-06T23:17:56.098Z,2.67
2022-10-06T23:20:22.532Z,3.47
2022-10-06T23:22:49.043Z,3.33
2022-10-06T23:25:15.849Z,3.10
2022-10-06T23:27:42.677Z,2.10
2022-10-06T23:30:10.150Z,2.80
2022-10-06T23:32:37.528Z,3.13
2022-10-06T23:35:04.565Z,2.20
2022-10-06T23:37:31.082Z,2.53
2022-10-06T23:39:57.708Z,2.97
2022-10-06T23:42:24.180Z,2.92
2022-10-06T23:44:50.618Z,2.40
2022-10-06T23:47:17.143Z,2.35
2022-10-06T23:49:43.685Z,2.70
2022-10-06T23:52:10.185Z,2.75
2022-10-06T23:54:36.871Z,2.50
2022-10-06T23:57:04.237Z,2.58
2022-10-06T23:59:31.142Z,2.22
